Terminal Aerodrome Forecast
Issued by NWS Cleveland, OH

Home | Current Version | Previous Version | Text Only | Print | Product List | Glossary Off
Versions: 1 2 3 4 5 6 7 8 9 10 11 12 13 14 15 16 17 18 19 20 21 22

504
FTUS41 KCLE 092201 AAC
TAFTOL
TAF AMD
KTOL 092201Z 0922/1018 VRB04KT P6SM -SN OVC015
      TEMPO 0922/0924 3SM -SN
     FM100200 31010KT P6SM OVC025
     FM100600 30010KT P6SM SCT030 OVC035
     FM101500 24012G20KT P6SM SCT030 BKN040=

USA.gov is the U.S. government's official web portal to all federal, state and local government web resources and services.